sensor_id;sensor_type;location;lat;lon;timestamp;temperature;humidity
20594;DHT22;10455;48.732;10.266;2023-01-30T00:04:33;-4.00;99.90
20594;DHT22;10455;48.732;10.266;2023-01-30T00:09:36;-4.10;99.90
20594;DHT22;10455;48.732;10.266;2023-01-30T00:14:38;-4.30;99.90
20594;DHT22;10455;48.732;10.266;2023-01-30T00:19:40;-4.30;99.90
20594;DHT22;10455;48.732;10.266;2023-01-30T00:24:43;-4.30;99.90
20594;DHT22;10455;48.732;10.266;2023-01-30T00:29:45;-4.20;99.90
20594;DHT22;10455;48.732;10.266;2023-01-30T00:34:46;-4.20;99.90
20594;DHT22;10455;48.732;10.266;2023-01-30T00:39:50;-4.30;99.90
20594;DHT22;10455;48.732;10.266;2023-01-30T00:44:51;-4.30;99.90
20594;DHT22;10455;48.732;10.266;2023-01-30T00:50:11;-4.40;99.90
20594;DHT22;10455;48.732;10.266;2023-01-30T00:55:14;-4.40;99.90
20594;DHT22;10455;48.732;10.266;2023-01-30T01:00:16;-4.40;99.90
20594;DHT22;10455;48.732;10.266;2023-01-30T01:05:20;-4.40;99.90
20594;DHT22;10455;48.732;10.266;2023-01-30T01:10:23;-4.40;99.90
20594;DHT22;10455;48.732;10.266;2023-01-30T01:15:26;-4.40;99.90
20594;DHT22;10455;48.732;10.266;2023-01-30T01:20:28;-4.40;99.90
20594;DHT22;10455;48.732;10.266;2023-01-30T01:25:31;-4.50;99.90
20594;DHT22;10455;48.732;10.266;2023-01-30T01:30:33;-4.50;99.90
20594;DHT22;10455;48.732;10.266;2023-01-30T01:35:39;-4.50;99.90
20594;DHT22;10455;48.732;10.266;2023-01-30T01:40:46;-4.60;99.90
20594;DHT22;10455;48.732;10.266;2023-01-30T01:46:09;-4.70;99.90
20594;DHT22;10455;48.732;10.266;2023-01-30T01:51:17;-4.70;99.90
20594;DHT22;10455;48.732;10.266;2023-01-30T01:56:23;-4.80;99.90
20594;DHT22;10455;48.732;10.266;2023-01-30T02:01:25;-4.90;99.90
20594;DHT22;10455;48.732;10.266;2023-01-30T02:06:28;-5.00;99.90
20594;DHT22;10455;48.732;10.266;2023-01-30T02:11:37;-5.10;99.90
20594;DHT22;10455;48.732;10.266;2023-01-30T02:16:43;-5.00;99.90
20594;DHT22;10455;48.732;10.266;2023-01-30T02:22:07;-4.90;99.90
20594;DHT22;10455;48.732;10.266;2023-01-30T02:27:58;-4.70;99.90
20594;DHT22;10455;48.732;10.266;2023-01-30T02:33:15;-4.50;99.90
20594;DHT22;10455;48.732;10.266;2023-01-30T02:38:30;-4.30;99.90
20594;DHT22;10455;48.732;10.266;2023-01-30T02:43:40;-4.10;99.90
20594;DHT22;10455;48.732;10.266;2023-01-30T02:48:50;-3.80;99.90
20594;DHT22;10455;48.732;10.266;2023-01-30T02:53:55;-3.80;99.90
20594;DHT22;10455;48.732;10.266;2023-01-30T02:59:00;-3.60;99.90
20594;DHT22;10455;48.732;10.266;2023-01-30T03:04:22;-3.50;99.90
20594;DHT22;10455;48.732;10.266;2023-01-30T03:09:36;-3.30;99.90
20594;DHT22;10455;48.732;10.266;2023-01-30T03:14:46;-3.30;99.90
20594;DHT22;10455;48.732;10.266;2023-01-30T03:19:50;-3.20;99.90
20594;DHT22;10455;48.732;10.266;2023-01-30T03:24:53;-3.00;99.90
20594;DHT22;10455;48.732;10.266;2023-01-30T03:29:55;-3.00;99.90
20594;DHT22;10455;48.732;10.266;2023-01-30T03:34:58;-2.90;99.90
20594;DHT22;10455;48.732;10.266;2023-01-30T03:40:00;-3.10;99.90
20594;DHT22;10455;48.732;10.266;2023-01-30T03:45:02;-3.30;99.90
20594;DHT22;10455;48.732;10.266;2023-01-30T03:50:07;-3.40;99.90
20594;DHT22;10455;48.732;10.266;2023-01-30T03:55:09;-3.40;99.90
20594;DHT22;10455;48.732;10.266;2023-01-30T04:00:12;-3.30;99.90
20594;DHT22;10455;48.732;10.266;2023-01-30T04:05:15;-3.20;99.90
20594;DHT22;10455;48.732;10.266;2023-01-30T04:10:17;-3.30;99.90
20594;DHT22;10455;48.732;10.266;2023-01-30T04:15:20;-3.40;99.90
20594;DHT22;10455;48.732;10.266;2023-01-30T04:20:23;-3.20;99.90
20594;DHT22;10455;48.732;10.266;2023-01-30T04:25:25;-3.00;99.90
20594;DHT22;10455;48.732;10.266;2023-01-30T04:30:27;-2.90;99.90
20594;DHT22;10455;48.732;10.266;2023-01-30T04:35:30;-2.70;99.90
20594;DHT22;10455;48.732;10.266;2023-01-30T04:40:32;-2.50;99.90
20594;DHT22;10455;48.732;10.266;2023-01-30T04:45:34;-2.30;99.90
20594;DHT22;10455;48.732;10.266;2023-01-30T04:50:37;-2.20;99.90
20594;DHT22;10455;48.732;10.266;2023-01-30T04:55:39;-2.30;99.90
20594;DHT22;10455;48.732;10.266;2023-01-30T05:00:41;-2.30;99.90
20594;DHT22;10455;48.732;10.266;2023-01-30T05:05:46;-2.10;99.90
20594;DHT22;10455;48.732;10.266;2023-01-30T05:10:48;-1.90;99.90
20594;DHT22;10455;48.732;10.266;2023-01-30T05:15:50;-1.70;99.90
20594;DHT22;10455;48.732;10.266;2023-01-30T05:20:53;-1.70;99.90
20594;DHT22;10455;48.732;10.266;2023-01-30T05:25:55;-1.80;99.90
20594;DHT22;10455;48.732;10.266;2023-01-30T05:31:00;-1.80;99.90
20594;DHT22;10455;48.732;10.266;2023-01-30T05:36:04;-1.80;99.90
20594;DHT22;10455;48.732;10.266;2023-01-30T05:41:07;-2.10;99.90
20594;DHT22;10455;48.732;10.266;2023-01-30T05:46:10;-2.20;99.90
20594;DHT22;10455;48.732;10.266;2023-01-30T05:51:18;-2.00;99.90
20594;DHT22;10455;48.732;10.266;2023-01-30T05:56:20;-2.20;99.90
20594;DHT22;10455;48.732;10.266;2023-01-30T06:01:23;-2.30;99.90
20594;DHT22;10455;48.732;10.266;2023-01-30T06:06:26;-2.20;99.90
20594;DHT22;10455;48.732;10.266;2023-01-30T06:11:28;-2.10;99.90
20594;DHT22;10455;48.732;10.266;2023-01-30T06:16:29;-2.10;99.90
20594;DHT22;10455;48.732;10.266;2023-01-30T06:21:33;-2.30;99.90
20594;DHT22;10455;48.732;10.266;2023-01-30T06:26:34;-2.40;99.90
20594;DHT22;10455;48.732;10.266;2023-01-30T06:31:36;-2.50;99.90
20594;DHT22;10455;48.732;10.266;2023-01-30T06:36:39;-2.40;99.90
20594;DHT22;10455;48.732;10.266;2023-01-30T06:41:41;-2.30;99.90
20594;DHT22;10455;48.732;10.266;2023-01-30T06:46:43;-2.40;99.90
20594;DHT22;10455;48.732;10.266;2023-01-30T06:51:46;-2.50;99.90
20594;DHT22;10455;48.732;10.266;2023-01-30T06:56:48;-2.50;99.90
20594;DHT22;10455;48.732;10.266;2023-01-30T07:01:50;-2.30;99.90
20594;DHT22;10455;48.732;10.266;2023-01-30T07:06:53;-2.20;99.90
20594;DHT22;10455;48.732;10.266;2023-01-30T07:11:55;-2.20;99.90
20594;DHT22;10455;48.732;10.266;2023-01-30T07:16:57;-2.30;99.90
20594;DHT22;10455;48.732;10.266;2023-01-30T07:22:00;-2.20;99.90
20594;DHT22;10455;48.732;10.266;2023-01-30T07:27:02;-2.30;99.90
20594;DHT22;10455;48.732;10.266;2023-01-30T07:32:04;-2.20;99.90
20594;DHT22;10455;48.732;10.266;2023-01-30T07:37:09;-2.00;99.90
20594;DHT22;10455;48.732;10.266;2023-01-30T07:42:11;-1.40;99.90
20594;DHT22;10455;48.732;10.266;2023-01-30T07:47:13;-1.20;99.90
20594;DHT22;10455;48.732;10.266;2023-01-30T07:52:16;-0.90;99.90
20594;DHT22;10455;48.732;10.266;2023-01-30T07:57:18;-0.80;99.90
20594;DHT22;10455;48.732;10.266;2023-01-30T08:02:20;-1.10;99.90
20594;DHT22;10455;48.732;10.266;2023-01-30T08:07:23;-1.20;99.90
20594;DHT22;10455;48.732;10.266;2023-01-30T08:12:25;-0.90;99.90
20594;DHT22;10455;48.732;10.266;2023-01-30T08:17:28;-0.60;99.90
20594;DHT22;10455;48.732;10.266;2023-01-30T08:22:31;-0.40;99.90
20594;DHT22;10455;48.732;10.266;2023-01-30T08:27:33;-0.40;99.90
20594;DHT22;10455;48.732;10.266;2023-01-30T08:32:35;-0.20;99.90
20594;DHT22;10455;48.732;10.266;2023-01-30T08:37:39;0.10;99.90
20594;DHT22;10455;48.732;10.266;2023-01-30T08:42:43;0.30;99.90
20594;DHT22;10455;48.732;10.266;2023-01-30T08:47:45;-0.20;99.90
20594;DHT22;10455;48.732;10.266;2023-01-30T08:52:48;-0.10;99.90
20594;DHT22;10455;48.732;10.266;2023-01-30T08:57:50;0.50;99.90
20594;DHT22;10455;48.732;10.266;2023-01-30T09:07:56;1.60;99.90
20594;DHT22;10455;48.732;10.266;2023-01-30T09:12:57;1.20;99.90
20594;DHT22;10455;48.732;10.266;2023-01-30T09:17:59;1.00;99.90
20594;DHT22;10455;48.732;10.266;2023-01-30T09:23:03;0.80;99.90
20594;DHT22;10455;48.732;10.266;2023-01-30T09:28:05;0.70;99.90
20594;DHT22;10455;48.732;10.266;2023-01-30T09:33:07;1.70;99.90
20594;DHT22;10455;48.732;10.266;2023-01-30T09:38:10;3.70;99.90
20594;DHT22;10455;48.732;10.266;2023-01-30T09:43:26;3.60;99.90
20594;DHT22;10455;48.732;10.266;2023-01-30T09:48:34;4.90;99.90
20594;DHT22;10455;48.732;10.266;2023-01-30T09:53:51;2.50;99.90
20594;DHT22;10455;48.732;10.266;2023-01-30T09:58:56;1.90;99.90
20594;DHT22;10455;48.732;10.266;2023-01-30T10:04:05;1.70;99.90
20594;DHT22;10455;48.732;10.266;2023-01-30T10:09:17;1.70;99.90
20594;DHT22;10455;48.732;10.266;2023-01-30T10:14:43;1.90;99.90
20594;DHT22;10455;48.732;10.266;2023-01-30T10:20:01;2.00;99.90
20594;DHT22;10455;48.732;10.266;2023-01-30T10:25:15;2.10;99.90
20594;DHT22;10455;48.732;10.266;2023-01-30T10:30:21;1.90;99.90
20594;DHT22;10455;48.732;10.266;2023-01-30T10:35:28;2.00;99.90
20594;DHT22;10455;48.732;10.266;2023-01-30T10:40:37;1.90;99.90
20594;DHT22;10455;48.732;10.266;2023-01-30T10:45:53;1.60;99.90
20594;DHT22;10455;48.732;10.266;2023-01-30T10:50:58;1.50;99.90
20594;DHT22;10455;48.732;10.266;2023-01-30T10:56:07;1.20;99.90
20594;DHT22;10455;48.732;10.266;2023-01-30T11:01:15;1.20;99.90
20594;DHT22;10455;48.732;10.266;2023-01-30T11:06:22;0.80;99.90
20594;DHT22;10455;48.732;10.266;2023-01-30T11:11:28;0.90;99.90
20594;DHT22;10455;48.732;10.266;2023-01-30T11:16:33;1.30;99.90
20594;DHT22;10455;48.732;10.266;2023-01-30T11:21:47;2.10;99.90
20594;DHT22;10455;48.732;10.266;2023-01-30T11:26:51;2.10;99.90
20594;DHT22;10455;48.732;10.266;2023-01-30T11:31:53;2.50;99.90
20594;DHT22;10455;48.732;10.266;2023-01-30T11:37:12;2.90;99.90
20594;DHT22;10455;48.732;10.266;2023-01-30T11:42:22;2.80;99.90
20594;DHT22;10455;48.732;10.266;2023-01-30T11:47:26;2.70;99.90
20594;DHT22;10455;48.732;10.266;2023-01-30T11:52:30;2.70;99.90
20594;DHT22;10455;48.732;10.266;2023-01-30T11:57:39;3.10;99.90
20594;DHT22;10455;48.732;10.266;2023-01-30T12:02:43;3.00;99.90
20594;DHT22;10455;48.732;10.266;2023-01-30T12:07:45;3.30;99.90
20594;DHT22;10455;48.732;10.266;2023-01-30T12:12:50;3.00;99.90
20594;DHT22;10455;48.732;10.266;2023-01-30T12:17:58;3.30;99.90
20594;DHT22;10455;48.732;10.266;2023-01-30T12:23:09;3.70;99.90
20594;DHT22;10455;48.732;10.266;2023-01-30T12:28:19;3.50;99.90
20594;DHT22;10455;48.732;10.266;2023-01-30T12:33:27;3.20;99.90
20594;DHT22;10455;48.732;10.266;2023-01-30T12:38:48;3.20;99.90
20594;DHT22;10455;48.732;10.266;2023-01-30T12:44:13;3.50;99.90
20594;DHT22;10455;48.732;10.266;2023-01-30T12:49:37;3.50;99.90
20594;DHT22;10455;48.732;10.266;2023-01-30T12:54:49;3.30;99.90
20594;DHT22;10455;48.732;10.266;2023-01-30T13:00:05;3.20;99.90
20594;DHT22;10455;48.732;10.266;2023-01-30T13:05:21;2.90;99.90
20594;DHT22;10455;48.732;10.266;2023-01-30T13:10:32;2.90;99.90
20594;DHT22;10455;48.732;10.266;2023-01-30T13:15:43;2.80;99.90
20594;DHT22;10455;48.732;10.266;2023-01-30T13:20:53;2.50;99.90
20594;DHT22;10455;48.732;10.266;2023-01-30T13:25:59;2.30;99.90
20594;DHT22;10455;48.732;10.266;2023-01-30T13:31:09;2.50;99.90
20594;DHT22;10455;48.732;10.266;2023-01-30T13:36:14;2.40;99.90
20594;DHT22;10455;48.732;10.266;2023-01-30T13:41:17;2.30;99.90
20594;DHT22;10455;48.732;10.266;2023-01-30T13:46:25;2.40;99.90
20594;DHT22;10455;48.732;10.266;2023-01-30T13:51:43;2.30;99.90
20594;DHT22;10455;48.732;10.266;2023-01-30T13:56:49;2.10;99.90
20594;DHT22;10455;48.732;10.266;2023-01-30T14:02:28;2.10;99.90
20594;DHT22;10455;48.732;10.266;2023-01-30T14:07:31;2.20;99.90
20594;DHT22;10455;48.732;10.266;2023-01-30T14:12:36;2.10;99.90
20594;DHT22;10455;48.732;10.266;2023-01-30T14:17:56;2.20;99.90
20594;DHT22;10455;48.732;10.266;2023-01-30T14:22:59;2.10;99.90
20594;DHT22;10455;48.732;10.266;2023-01-30T14:33:52;1.90;99.90
20594;DHT22;10455;48.732;10.266;2023-01-30T14:38:56;1.90;99.90
20594;DHT22;10455;48.732;10.266;2023-01-30T14:49:57;1.70;99.90
20594;DHT22;10455;48.732;10.266;2023-01-30T14:54:59;1.80;99.90
20594;DHT22;10455;48.732;10.266;2023-01-30T15:00:14;1.50;99.90
20594;DHT22;10455;48.732;10.266;2023-01-30T15:05:26;1.60;99.90
20594;DHT22;10455;48.732;10.266;2023-01-30T15:10:43;1.60;99.90
20594;DHT22;10455;48.732;10.266;2023-01-30T15:15:54;1.70;99.90
20594;DHT22;10455;48.732;10.266;2023-01-30T15:21:18;1.70;99.90
20594;DHT22;10455;48.732;10.266;2023-01-30T15:26:33;1.70;99.90
20594;DHT22;10455;48.732;10.266;2023-01-30T15:31:38;1.90;99.90
20594;DHT22;10455;48.732;10.266;2023-01-30T15:36:55;1.80;99.90
20594;DHT22;10455;48.732;10.266;2023-01-30T15:42:04;1.70;99.90
20594;DHT22;10455;48.732;10.266;2023-01-30T15:47:22;1.90;99.90
20594;DHT22;10455;48.732;10.266;2023-01-30T15:52:35;2.00;99.90
20594;DHT22;10455;48.732;10.266;2023-01-30T15:57:39;2.00;99.90
20594;DHT22;10455;48.732;10.266;2023-01-30T16:02:41;1.90;99.90
20594;DHT22;10455;48.732;10.266;2023-01-30T16:07:47;1.90;99.90
20594;DHT22;10455;48.732;10.266;2023-01-30T16:12:50;1.90;99.90
20594;DHT22;10455;48.732;10.266;2023-01-30T16:17:59;1.80;99.90
20594;DHT22;10455;48.732;10.266;2023-01-30T16:23:03;1.90;99.90
20594;DHT22;10455;48.732;10.266;2023-01-30T16:28:04;1.90;99.90
20594;DHT22;10455;48.732;10.266;2023-01-30T16:33:07;2.00;99.90
20594;DHT22;10455;48.732;10.266;2023-01-30T16:38:31;1.90;99.90
20594;DHT22;10455;48.732;10.266;2023-01-30T16:43:35;1.80;99.90
20594;DHT22;10455;48.732;10.266;2023-01-30T16:48:43;2.00;99.90
20594;DHT22;10455;48.732;10.266;2023-01-30T16:53:54;2.00;99.90
20594;DHT22;10455;48.732;10.266;2023-01-30T16:58:59;2.00;99.90
20594;DHT22;10455;48.732;10.266;2023-01-30T17:04:03;1.70;99.90
20594;DHT22;10455;48.732;10.266;2023-01-30T17:09:37;1.90;99.90
20594;DHT22;10455;48.732;10.266;2023-01-30T17:14:41;1.90;99.90
20594;DHT22;10455;48.732;10.266;2023-01-30T17:19:45;2.00;99.90
20594;DHT22;10455;48.732;10.266;2023-01-30T17:24:49;2.00;99.90
20594;DHT22;10455;48.732;10.266;2023-01-30T17:29:52;1.80;99.90
20594;DHT22;10455;48.732;10.266;2023-01-30T17:34:54;1.90;99.90
20594;DHT22;10455;48.732;10.266;2023-01-30T17:39:59;1.90;99.90
20594;DHT22;10455;48.732;10.266;2023-01-30T17:45:01;1.70;99.90
20594;DHT22;10455;48.732;10.266;2023-01-30T17:50:04;1.80;99.90
20594;DHT22;10455;48.732;10.266;2023-01-30T17:55:09;1.90;99.90
20594;DHT22;10455;48.732;10.266;2023-01-30T18:00:15;2.00;99.90
20594;DHT22;10455;48.732;10.266;2023-01-30T18:05:17;2.00;99.90
20594;DHT22;10455;48.732;10.266;2023-01-30T18:10:20;2.00;99.90
20594;DHT22;10455;48.732;10.266;2023-01-30T18:15:22;2.20;99.90
20594;DHT22;10455;48.732;10.266;2023-01-30T18:20:24;2.10;99.90
20594;DHT22;10455;48.732;10.266;2023-01-30T18:25:27;2.20;99.90
20594;DHT22;10455;48.732;10.266;2023-01-30T18:30:29;2.10;99.90
20594;DHT22;10455;48.732;10.266;2023-01-30T18:35:31;2.10;99.90
20594;DHT22;10455;48.732;10.266;2023-01-30T18:40:36;2.20;99.90
20594;DHT22;10455;48.732;10.266;2023-01-30T18:45:41;2.20;99.90
20594;DHT22;10455;48.732;10.266;2023-01-30T18:50:43;2.20;99.90
20594;DHT22;10455;48.732;10.266;2023-01-30T18:55:49;2.00;99.90
20594;DHT22;10455;48.732;10.266;2023-01-30T19:00:51;2.00;99.90
20594;DHT22;10455;48.732;10.266;2023-01-30T19:05:53;1.90;99.90
20594;DHT22;10455;48.732;10.266;2023-01-30T19:11:02;2.00;99.90
20594;DHT22;10455;48.732;10.266;2023-01-30T19:16:25;2.10;99.90
20594;DHT22;10455;48.732;10.266;2023-01-30T19:21:27;2.10;99.90
20594;DHT22;10455;48.732;10.266;2023-01-30T19:26:31;2.10;99.90
20594;DHT22;10455;48.732;10.266;2023-01-30T19:31:33;1.90;99.90
20594;DHT22;10455;48.732;10.266;2023-01-30T19:36:35;2.10;99.90
20594;DHT22;10455;48.732;10.266;2023-01-30T19:41:39;2.10;99.90
20594;DHT22;10455;48.732;10.266;2023-01-30T19:46:40;2.20;99.90
20594;DHT22;10455;48.732;10.266;2023-01-30T19:51:42;2.20;99.90
20594;DHT22;10455;48.732;10.266;2023-01-30T19:56:46;2.40;99.90
20594;DHT22;10455;48.732;10.266;2023-01-30T20:01:48;2.20;99.90
20594;DHT22;10455;48.732;10.266;2023-01-30T20:06:50;2.20;99.90
20594;DHT22;10455;48.732;10.266;2023-01-30T20:11:53;2.30;99.90
20594;DHT22;10455;48.732;10.266;2023-01-30T20:16:55;2.30;99.90
20594;DHT22;10455;48.732;10.266;2023-01-30T20:21:57;2.20;99.90
20594;DHT22;10455;48.732;10.266;2023-01-30T20:27:00;2.20;99.90
20594;DHT22;10455;48.732;10.266;2023-01-30T20:32:03;2.30;99.90
20594;DHT22;10455;48.732;10.266;2023-01-30T20:37:05;2.10;99.90
20594;DHT22;10455;48.732;10.266;2023-01-30T20:42:08;2.20;99.90
20594;DHT22;10455;48.732;10.266;2023-01-30T20:47:10;2.20;99.90
20594;DHT22;10455;48.732;10.266;2023-01-30T20:52:12;2.30;99.90
20594;DHT22;10455;48.732;10.266;2023-01-30T20:57:15;2.10;99.90
20594;DHT22;10455;48.732;10.266;2023-01-30T21:02:17;2.20;99.90
20594;DHT22;10455;48.732;10.266;2023-01-30T21:12:23;2.10;99.90
20594;DHT22;10455;48.732;10.266;2023-01-30T21:17:26;2.00;99.90
20594;DHT22;10455;48.732;10.266;2023-01-30T21:22:28;2.10;99.90
20594;DHT22;10455;48.732;10.266;2023-01-30T21:27:31;2.20;99.90
20594;DHT22;10455;48.732;10.266;2023-01-30T21:32:33;2.20;99.90
20594;DHT22;10455;48.732;10.266;2023-01-30T21:37:35;2.10;99.90
20594;DHT22;10455;48.732;10.266;2023-01-30T21:42:56;2.10;99.90
20594;DHT22;10455;48.732;10.266;2023-01-30T21:48:16;2.10;99.90
20594;DHT22;10455;48.732;10.266;2023-01-30T21:53:18;2.30;99.90
20594;DHT22;10455;48.732;10.266;2023-01-30T21:58:21;2.40;99.90
20594;DHT22;10455;48.732;10.266;2023-01-30T22:03:25;2.40;99.90
20594;DHT22;10455;48.732;10.266;2023-01-30T22:08:27;3.30;99.90
20594;DHT22;10455;48.732;10.266;2023-01-30T22:13:31;2.20;99.90
20594;DHT22;10455;48.732;10.266;2023-01-30T22:21:15;2.00;99.90
20594;DHT22;10455;48.732;10.266;2023-01-30T22:24:14;1.60;99.90
20594;DHT22;10455;48.732;10.266;2023-01-30T22:29:17;1.60;99.90
20594;DHT22;10455;48.732;10.266;2023-01-30T22:34:19;1.70;99.90
20594;DHT22;10455;48.732;10.266;2023-01-30T22:39:21;1.70;99.90
20594;DHT22;10455;48.732;10.266;2023-01-30T22:44:24;1.80;99.90
20594;DHT22;10455;48.732;10.266;2023-01-30T22:49:26;1.80;99.90
20594;DHT22;10455;48.732;10.266;2023-01-30T22:54:33;1.70;99.90
20594;DHT22;10455;48.732;10.266;2023-01-30T22:59:37;1.60;99.90
20594;DHT22;10455;48.732;10.266;2023-01-30T23:04:39;1.60;99.90
20594;DHT22;10455;48.732;10.266;2023-01-30T23:09:44;1.50;99.90
20594;DHT22;10455;48.732;10.266;2023-01-30T23:15:11;1.50;99.90
20594;DHT22;10455;48.732;10.266;2023-01-30T23:20:13;1.60;99.90
20594;DHT22;10455;48.732;10.266;2023-01-30T23:25:15;1.60;99.90
20594;DHT22;10455;48.732;10.266;2023-01-30T23:30:18;1.70;99.90
20594;DHT22;10455;48.732;10.266;2023-01-30T23:35:20;1.70;99.90
20594;DHT22;10455;48.732;10.266;2023-01-30T23:40:22;1.60;99.90
20594;DHT22;10455;48.732;10.266;2023-01-30T23:45:27;1.40;99.90
20594;DHT22;10455;48.732;10.266;2023-01-30T23:50:29;1.40;99.90
20594;DHT22;10455;48.732;10.266;2023-01-30T23:55:31;1.40;99.90
